Time;durP1;ratioP1;P1;durP2;ratioP2;P2;SDS_P1;SDS_P2;PMS_P1;PMS_P2;Temp;Humidity;BMP_temperature;BMP_pressure;BME280_temperature;BME280_humidity;BME280_pressure;Samples;Min_cycle;Max_cycle;Signal;HPM_P1;HPM_P2
2023/08/11 00:02:14;;;;;;;32.83;6.55;;;30.10;99.90;;;;;;5043772;28;20082;-51
2023/08/11 00:04:39;;;;;;;20.98;7.30;;;30.10;99.90;;;;;;5046693;28;20389;-50
2023/08/11 00:07:05;;;;;;;12.98;6.88;;;30.10;99.90;;;;;;5044524;28;20021;-51
2023/08/11 00:09:31;;;;;;;15.85;7.13;;;30.10;99.90;;;;;;5045056;28;20021;-50
2023/08/11 00:11:57;;;;;;;28.25;7.28;;;30.10;99.90;;;;;;5046793;28;20021;-51
2023/08/11 00:14:22;;;;;;;17.10;5.70;;;30.10;99.90;;;;;;5046047;28;20060;-50
2023/08/11 00:16:48;;;;;;;17.52;5.70;;;30.10;99.90;;;;;;5047777;28;20025;-50
2023/08/11 00:19:14;;;;;;;17.33;5.65;;;30.10;99.90;;;;;;5046841;28;20854;-50
2023/08/11 00:21:41;;;;;;;13.77;6.00;;;30.10;99.90;;;;;;5047766;28;20036;-49
2023/08/11 00:24:07;;;;;;;21.42;5.43;;;30.10;99.90;;;;;;5050942;28;20088;-50
2023/08/11 00:26:33;;;;;;;19.25;5.15;;;30.20;99.90;;;;;;5049328;28;20108;-50
2023/08/11 00:28:58;;;;;;;16.17;5.32;;;30.20;99.90;;;;;;5048768;28;20377;-50
2023/08/11 00:31:24;;;;;;;18.90;5.05;;;30.20;99.90;;;;;;5039432;28;20716;-51
2023/08/11 00:33:51;;;;;;;21.23;6.47;;;30.20;99.90;;;;;;5047363;28;20045;-51
2023/08/11 00:36:18;;;;;;;18.92;6.47;;;30.20;99.90;;;;;;5049236;28;20033;-50
2023/08/11 00:38:44;;;;;;;19.10;6.85;;;30.20;99.90;;;;;;5049562;28;20025;-49
2023/08/11 00:41:10;;;;;;;17.38;6.70;;;30.20;99.90;;;;;;5048889;28;20044;-51
2023/08/11 00:43:37;;;;;;;17.00;5.93;;;30.20;99.90;;;;;;5050729;28;20079;-50
2023/08/11 00:46:10;;;;;;;23.25;6.05;;;30.20;99.90;;;;;;5048728;28;20461;-50
2023/08/11 00:48:43;;;;;;;18.73;6.43;;;30.20;99.90;;;;;;5051487;28;20021;-49
2023/08/11 00:51:13;;;;;;;17.05;5.65;;;30.20;99.90;;;;;;5048376;28;20037;-51
2023/08/11 00:53:42;;;;;;;21.40;6.68;;;30.20;99.90;;;;;;5050289;28;20021;-50
2023/08/11 00:56:08;;;;;;;18.73;6.03;;;30.20;99.90;;;;;;5045805;28;20032;-50
2023/08/11 00:58:34;;;;;;;17.45;6.03;;;30.20;99.90;;;;;;5048976;28;20033;-50
2023/08/11 01:01:00;;;;;;;15.43;5.60;;;30.20;99.90;;;;;;5044816;28;20029;-49
2023/08/11 01:03:26;;;;;;;22.75;7.28;;;30.20;99.90;;;;;;5042262;28;20751;-49
2023/08/11 01:06:33;;;;;;;18.75;6.50;;;30.20;99.90;;;;;;5031127;28;20025;-50
2023/08/11 01:09:15;;;;;;;16.50;6.32;;;30.10;99.90;;;;;;5025683;28;20104;-47
2023/08/11 01:11:57;;;;;;;21.95;6.57;;;30.10;99.90;;;;;;5048262;28;20049;-49
2023/08/11 01:14:26;;;;;;;17.48;5.85;;;30.10;99.90;;;;;;5031997;28;20049;-50
2023/08/11 01:16:54;;;;;;;14.88;6.20;;;30.10;99.90;;;;;;5051593;28;20077;-49
2023/08/11 01:19:38;;;;;;;17.23;6.07;;;30.10;99.90;;;;;;5052095;28;20024;-50
2023/08/11 01:22:10;;;;;;;17.25;6.30;;;30.10;99.90;;;;;;5051432;28;20025;-49
2023/08/11 01:24:38;;;;;;;14.43;5.50;;;30.10;99.90;;;;;;5050586;28;20118;-49
2023/08/11 01:27:04;;;;;;;21.67;7.05;;;30.10;99.90;;;;;;5051462;28;20477;-50
2023/08/11 01:29:30;;;;;;;21.23;6.85;;;30.10;99.90;;;;;;5053077;28;20108;-50
2023/08/11 01:31:56;;;;;;;18.95;5.57;;;30.10;99.90;;;;;;5051271;28;20107;-50
2023/08/11 01:34:22;;;;;;;19.85;6.25;;;30.10;99.90;;;;;;5054695;28;20020;-50
2023/08/11 01:36:57;;;;;;;19.65;5.60;;;30.10;99.90;;;;;;5052531;28;20029;-50
2023/08/11 01:39:22;;;;;;;17.90;5.50;;;30.10;99.90;;;;;;5052729;28;20056;-50
2023/08/11 01:41:48;;;;;;;19.35;6.43;;;30.10;99.90;;;;;;5052666;28;20068;-50
2023/08/11 01:44:14;;;;;;;10.30;5.00;;;30.10;99.90;;;;;;5052314;28;20029;-50
2023/08/11 01:46:42;;;;;;;14.63;5.63;;;30.10;99.90;;;;;;5052589;28;20017;-50
2023/08/11 01:49:12;;;;;;;17.77;4.82;;;30.10;99.90;;;;;;5052883;28;20128;-50
2023/08/11 01:51:42;;;;;;;18.98;7.10;;;30.10;99.90;;;;;;5052913;28;20048;-49
2023/08/11 01:54:08;;;;;;;16.98;4.95;;;30.10;99.90;;;;;;5052805;28;20029;-50
2023/08/11 01:56:36;;;;;;;13.32;5.43;;;30.10;99.90;;;;;;5052975;28;20384;-49
2023/08/11 01:59:10;;;;;;;17.58;6.05;;;30.10;99.90;;;;;;5053073;28;20028;-49
2023/08/11 02:01:37;;;;;;;22.40;5.70;;;30.10;99.90;;;;;;5053375;28;20025;-50
2023/08/11 02:04:04;;;;;;;21.30;5.40;;;30.10;99.90;;;;;;5053055;28;20052;-49
2023/08/11 02:06:30;;;;;;;16.70;4.95;;;30.10;99.90;;;;;;5052767;28;20021;-49
2023/08/11 02:08:57;;;;;;;21.52;5.93;;;30.10;99.90;;;;;;5052611;28;20021;-49
2023/08/11 02:11:22;;;;;;;17.98;5.55;;;30.10;99.90;;;;;;5052599;28;20094;-50
2023/08/11 02:13:48;;;;;;;25.55;4.93;;;30.10;99.90;;;;;;5052605;28;20124;-49
2023/08/11 02:16:14;;;;;;;18.25;3.78;;;30.10;99.90;;;;;;5052622;28;20104;-50
2023/08/11 02:18:40;;;;;;;18.50;4.20;;;30.10;99.90;;;;;;5051264;28;20141;-49
2023/08/11 02:21:08;;;;;;;16.92;5.38;;;30.10;99.90;;;;;;5034506;28;20025;-49
2023/08/11 02:23:34;;;;;;;10.90;3.22;;;30.10;99.90;;;;;;5052727;28;20106;-50
2023/08/11 02:26:00;;;;;;;19.77;4.28;;;30.10;99.90;;;;;;5052233;28;20492;-49
2023/08/11 02:28:26;;;;;;;27.58;5.60;;;30.10;99.90;;;;;;5052240;28;20481;-49
2023/08/11 02:30:52;;;;;;;12.48;4.35;;;30.20;99.90;;;;;;5050889;28;20029;-49
2023/08/11 02:33:18;;;;;;;11.88;3.67;;;30.20;99.90;;;;;;5050933;28;20048;-49
2023/08/11 02:35:45;;;;;;;21.38;5.32;;;30.20;99.90;;;;;;5052228;28;20033;-49
2023/08/11 02:38:13;;;;;;;13.40;3.92;;;30.30;99.90;;;;;;5052207;28;20045;-50
2023/08/11 02:40:39;;;;;;;10.43;3.40;;;30.30;99.90;;;;;;5034347;28;20061;-49
2023/08/11 02:43:07;;;;;;;13.18;3.92;;;30.30;99.90;;;;;;5051141;28;20051;-50
2023/08/11 02:45:33;;;;;;;14.05;4.72;;;30.30;99.90;;;;;;5051987;28;20025;-48
2023/08/11 02:47:59;;;;;;;27.10;7.15;;;30.40;99.90;;;;;;5050701;28;20036;-48
2023/08/11 02:50:24;;;;;;;22.45;7.00;;;30.50;99.90;;;;;;5052042;28;20322;-49
2023/08/11 02:52:50;;;;;;;21.85;8.13;;;30.40;99.90;;;;;;5052029;28;20025;-49
2023/08/11 02:55:16;;;;;;;15.77;5.88;;;30.40;99.90;;;;;;5051710;28;20389;-50
2023/08/11 02:57:42;;;;;;;18.10;5.53;;;30.30;99.90;;;;;;5051781;28;20021;-50
2023/08/11 03:00:14;;;;;;;16.60;4.22;;;30.30;99.90;;;;;;5052506;28;20100;-50
2023/08/11 03:02:47;;;;;;;15.52;4.00;;;30.20;99.90;;;;;;5050532;28;20086;-50
2023/08/11 03:05:14;;;;;;;8.38;2.47;;;30.20;99.90;;;;;;5051840;28;20385;-50
2023/08/11 03:07:40;;;;;;;;;;;30.10;99.90;;;;;;5052221;28;20436;-50
2023/08/11 03:10:09;;;;;;;11.48;2.70;;;30.20;99.90;;;;;;5051915;28;20375;-50
2023/08/11 03:12:35;;;;;;;16.73;3.17;;;30.20;99.90;;;;;;5051758;28;20025;-50
2023/08/11 03:15:05;;;;;;;5.13;2.08;;;30.20;99.90;;;;;;5050134;28;20048;-50
2023/08/11 03:17:31;;;;;;;15.40;4.47;;;30.30;99.90;;;;;;5051574;28;20029;-50
2023/08/11 03:19:57;;;;;;;6.38;2.28;;;30.30;99.90;;;;;;5051835;28;20074;-50
2023/08/11 03:22:22;;;;;;;8.85;2.63;;;30.40;99.90;;;;;;5051411;28;20362;-51
2023/08/11 03:24:49;;;;;;;8.65;2.20;;;30.40;99.90;;;;;;5051495;28;20021;-50
2023/08/11 03:27:15;;;;;;;12.05;2.90;;;30.50;99.90;;;;;;5051786;28;20043;-50
2023/08/11 03:29:41;;;;;;;15.93;3.75;;;30.50;99.90;;;;;;5049938;28;20116;-49
2023/08/11 03:32:07;;;;;;;11.32;4.32;;;30.60;99.90;;;;;;5033327;28;20036;-50
2023/08/11 03:34:33;;;;;;;10.13;4.15;;;30.60;99.90;;;;;;5040544;28;20037;-49
2023/08/11 03:36:59;;;;;;;9.25;2.63;;;30.70;99.90;;;;;;5049701;28;20028;-50
2023/08/11 03:39:24;;;;;;;9.13;3.72;;;30.60;99.90;;;;;;5050991;28;20021;-49
2023/08/11 03:41:52;;;;;;;10.85;3.95;;;30.60;99.90;;;;;;5050983;28;20017;-49
2023/08/11 03:44:18;;;;;;;14.30;4.03;;;30.70;99.90;;;;;;5051145;28;20087;-49
2023/08/11 03:46:44;;;;;;;10.90;2.50;;;30.60;99.90;;;;;;5050734;28;20044;-49
2023/08/11 03:49:09;;;;;;;10.60;2.53;;;30.60;99.90;;;;;;5051088;28;20465;-49
2023/08/11 03:51:35;;;;;;;13.77;2.83;;;30.70;99.90;;;;;;5051000;28;20025;-49
2023/08/11 03:54:02;;;;;;;6.22;2.30;;;30.70;99.90;;;;;;5066352;28;20053;-49
2023/08/11 03:56:29;;;;;;;10.32;3.00;;;30.70;99.90;;;;;;5051799;28;20025;-49
2023/08/11 03:58:55;;;;;;;9.77;2.60;;;30.70;99.90;;;;;;5054945;28;20158;-49
2023/08/11 04:01:21;;;;;;;12.23;3.00;;;30.80;99.90;;;;;;5054914;28;20067;-49
2023/08/11 04:03:46;;;;;;;14.25;3.17;;;30.80;99.90;;;;;;5054080;28;20390;-49
2023/08/11 04:06:12;;;;;;;10.13;2.95;;;30.90;99.90;;;;;;5053908;28;20029;-49
2023/08/11 04:08:38;;;;;;;10.00;3.08;;;30.90;99.90;;;;;;5055029;28;20479;-49
2023/08/11 04:11:04;;;;;;;10.88;2.88;;;30.90;99.90;;;;;;5070248;28;20025;-49
2023/08/11 04:13:29;;;;;;;9.90;3.80;;;30.90;99.90;;;;;;5069295;28;20037;-49
2023/08/11 04:15:55;;;;;;;12.98;2.92;;;30.90;99.90;;;;;;5054737;28;20385;-49
2023/08/11 04:18:21;;;;;;;14.38;2.53;;;30.90;99.90;;;;;;5054634;28;20043;-49
2023/08/11 04:20:47;;;;;;;8.95;2.75;;;30.90;99.90;;;;;;5069896;28;20025;-49
2023/08/11 04:23:13;;;;;;;8.90;3.13;;;30.90;99.90;;;;;;5054498;28;20091;-49
2023/08/11 04:25:39;;;;;;;9.35;3.67;;;30.90;99.90;;;;;;5054688;28;20021;-48
2023/08/11 04:28:05;;;;;;;20.13;2.88;;;30.90;99.90;;;;;;5054471;28;20452;-49
2023/08/11 04:30:32;;;;;;;14.95;2.90;;;30.80;99.90;;;;;;5054335;28;20104;-49
2023/08/11 04:32:59;;;;;;;8.32;2.47;;;30.80;99.90;;;;;;5054347;28;20032;-49
2023/08/11 04:35:25;;;;;;;17.48;3.30;;;30.70;99.90;;;;;;5054338;28;20037;-49
2023/08/11 04:37:51;;;;;;;10.13;3.10;;;30.70;99.90;;;;;;5054112;28;20021;-49
2023/08/11 04:40:17;;;;;;;14.23;3.17;;;30.70;99.90;;;;;;5054237;28;20380;-49
2023/08/11 04:42:44;;;;;;;10.53;3.20;;;30.60;99.90;;;;;;5054467;28;20453;-49
2023/08/11 04:45:10;;;;;;;13.90;3.58;;;30.60;99.90;;;;;;5052822;28;20300;-49
2023/08/11 04:47:36;;;;;;;14.52;3.55;;;30.60;99.90;;;;;;5054196;28;20028;-49
2023/08/11 04:50:03;;;;;;;15.52;3.25;;;30.60;99.90;;;;;;5053929;28;20127;-49
2023/08/11 04:52:29;;;;;;;18.75;3.72;;;30.60;99.90;;;;;;5053904;28;20025;-49
2023/08/11 04:54:54;;;;;;;12.77;3.38;;;30.60;99.90;;;;;;5053755;28;20037;-49
2023/08/11 04:57:20;;;;;;;16.50;3.38;;;30.60;99.90;;;;;;5053891;28;20021;-49
2023/08/11 04:59:46;;;;;;;11.93;4.15;;;30.60;99.90;;;;;;5052502;28;20382;-49
2023/08/11 05:02:13;;;;;;;11.40;3.53;;;30.60;99.90;;;;;;5053275;28;20021;-49
2023/08/11 05:04:39;;;;;;;10.03;3.27;;;30.60;99.90;;;;;;5053691;28;20025;-49
2023/08/11 05:07:08;;;;;;;9.05;2.85;;;30.60;99.90;;;;;;5053279;28;20284;-49
2023/08/11 05:09:36;;;;;;;13.25;3.38;;;30.60;99.90;;;;;;5053536;28;20025;-49
2023/08/11 05:12:03;;;;;;;19.40;3.40;;;30.60;99.90;;;;;;5053697;28;20024;-49
2023/08/11 05:14:28;;;;;;;9.53;3.00;;;30.50;99.90;;;;;;5052098;28;20052;-49
2023/08/11 05:16:54;;;;;;;13.60;3.08;;;30.50;99.90;;;;;;5053713;28;20426;-49
2023/08/11 05:19:20;;;;;;;12.02;2.78;;;30.50;99.90;;;;;;5053594;28;20139;-49
2023/08/11 05:21:46;;;;;;;12.52;4.93;;;30.50;99.90;;;;;;5053294;28;20021;-49
2023/08/11 05:24:12;;;;;;;9.70;3.20;;;30.50;99.90;;;;;;5053659;28;20021;-49
2023/08/11 05:26:38;;;;;;;12.05;3.63;;;30.40;99.90;;;;;;5053443;28;20376;-49
2023/08/11 05:29:04;;;;;;;13.23;3.05;;;30.40;99.90;;;;;;5051945;28;20021;-49
2023/08/11 05:31:30;;;;;;;17.17;4.90;;;30.40;99.90;;;;;;5052255;28;20028;-49
2023/08/11 05:33:56;;;;;;;12.75;4.05;;;30.40;99.90;;;;;;5053145;28;20020;-49
2023/08/11 05:36:22;;;;;;;18.40;4.05;;;30.40;99.90;;;;;;5053206;28;20037;-49
2023/08/11 05:38:47;;;;;;;14.95;3.63;;;30.40;99.90;;;;;;5053419;28;20377;-49
2023/08/11 05:41:13;;;;;;;11.98;3.20;;;30.40;99.90;;;;;;5053617;28;20381;-49
2023/08/11 05:43:39;;;;;;;14.30;3.00;;;30.30;99.90;;;;;;5052823;28;20389;-49
2023/08/11 05:46:06;;;;;;;9.05;3.38;;;30.40;99.90;;;;;;5053024;28;20036;-50
2023/08/11 05:48:36;;;;;;;16.52;3.92;;;30.30;99.90;;;;;;5051349;28;20122;-49
2023/08/11 05:51:03;;;;;;;17.77;3.30;;;30.40;99.90;;;;;;5052759;28;20023;-50
2023/08/11 05:53:29;;;;;;;14.32;3.53;;;30.30;99.90;;;;;;5052792;28;20033;-49
2023/08/11 05:55:54;;;;;;;13.98;4.88;;;30.30;99.90;;;;;;5052549;28;20124;-49
2023/08/11 05:58:21;;;;;;;14.70;4.22;;;30.30;99.90;;;;;;5052734;28;20028;-49
2023/08/11 06:00:48;;;;;;;22.77;3.72;;;30.30;99.90;;;;;;5052730;28;20021;-49
2023/08/11 06:03:14;;;;;;;18.85;3.58;;;30.20;99.90;;;;;;5068032;28;20394;-49
2023/08/11 06:05:40;;;;;;;20.08;3.92;;;30.30;99.90;;;;;;5052692;28;20117;-49
2023/08/11 06:08:06;;;;;;;18.30;3.33;;;30.30;99.90;;;;;;5052505;28;20029;-49
2023/08/11 06:10:32;;;;;;;18.98;3.83;;;30.30;99.90;;;;;;5067730;28;20416;-50
2023/08/11 06:12:58;;;;;;;15.32;3.63;;;30.30;99.90;;;;;;5067701;28;20040;-49
2023/08/11 06:15:24;;;;;;;12.23;3.40;;;30.30;99.90;;;;;;5052122;28;20098;-50
2023/08/11 06:17:50;;;;;;;14.30;3.08;;;30.20;99.90;;;;;;5052240;28;20029;-49
2023/08/11 06:20:19;;;;;;;16.83;3.25;;;30.30;99.90;;;;;;5051869;28;20169;-49
2023/08/11 06:22:48;;;;;;;13.68;2.97;;;30.20;99.90;;;;;;5052485;28;20113;-49
2023/08/11 06:25:17;;;;;;;11.98;3.25;;;30.30;99.90;;;;;;5052379;28;20500;-49
2023/08/11 06:27:44;;;;;;;13.88;3.63;;;30.30;99.90;;;;;;5052218;28;20408;-49
2023/08/11 06:30:10;;;;;;;15.95;4.55;;;30.20;99.90;;;;;;5051979;28;20024;-49
2023/08/11 06:32:37;;;;;;;12.38;3.50;;;30.20;99.90;;;;;;5052090;28;20078;-49
2023/08/11 06:35:06;;;;;;;12.98;3.33;;;30.20;99.90;;;;;;5051931;28;20029;-49
2023/08/11 06:37:31;;;;;;;19.20;3.55;;;30.20;99.90;;;;;;5052066;28;20029;-49
2023/08/11 06:40:00;;;;;;;11.38;4.05;;;30.20;99.90;;;;;;5051865;28;20025;-49
2023/08/11 06:42:26;;;;;;;13.88;4.10;;;30.30;99.90;;;;;;5051955;28;20032;-49
2023/08/11 06:44:51;;;;;;;15.60;4.72;;;30.30;99.90;;;;;;5051698;28;20017;-49
2023/08/11 06:47:17;;;;;;;16.92;3.53;;;30.30;99.90;;;;;;5052034;28;20354;-49
2023/08/11 06:49:43;;;;;;;15.10;2.92;;;30.20;99.90;;;;;;5051594;28;20094;-50
2023/08/11 06:52:09;;;;;;;18.55;4.38;;;30.20;99.90;;;;;;5050396;28;20395;-50
2023/08/11 06:54:35;;;;;;;18.27;8.38;;;30.30;99.90;;;;;;5051522;28;20033;-50
2023/08/11 06:57:03;;;;;;;13.27;4.32;;;30.30;99.90;;;;;;5067184;28;20104;-55
2023/08/11 06:59:29;;;;;;;26.60;6.43;;;30.30;99.90;;;;;;5051646;28;20039;-50
2023/08/11 07:01:55;;;;;;;27.42;7.60;;;30.30;99.90;;;;;;5051370;28;20098;-51
2023/08/11 07:04:21;;;;;;;20.50;8.70;;;30.40;99.90;;;;;;5051673;28;20477;-50
2023/08/11 07:06:47;;;;;;;20.45;5.47;;;30.40;99.90;;;;;;5051924;28;20013;-50
2023/08/11 07:09:12;;;;;;;18.27;5.88;;;30.40;99.90;;;;;;5050105;28;20453;-49
2023/08/11 07:11:38;;;;;;;21.63;6.10;;;30.40;99.90;;;;;;5051304;28;20036;-49
2023/08/11 07:14:04;;;;;;;16.92;6.43;;;30.30;99.90;;;;;;5051053;28;20056;-49
2023/08/11 07:16:30;;;;;;;22.75;8.90;;;30.30;99.90;;;;;;5051563;28;20036;-49
2023/08/11 07:18:56;;;;;;;22.05;8.93;;;30.30;99.90;;;;;;5051183;28;20022;-49
2023/08/11 07:21:22;;;;;;;25.10;8.20;;;30.20;99.90;;;;;;5051325;28;20032;-49
2023/08/11 07:23:48;;;;;;;26.15;10.00;;;30.20;99.90;;;;;;5051372;28;20033;-49
2023/08/11 07:26:13;;;;;;;23.08;10.35;;;30.20;99.90;;;;;;5051140;28;20529;-48
2023/08/11 07:28:40;;;;;;;25.40;8.45;;;30.10;99.90;;;;;;5049903;28;20461;-49
2023/08/11 07:31:06;;;;;;;25.75;10.73;;;30.10;99.90;;;;;;5052314;28;20043;-48
2023/08/11 07:33:32;;;;;;;26.65;10.35;;;30.10;99.90;;;;;;5054761;28;20078;-49
2023/08/11 07:35:58;;;;;;;25.05;10.07;;;30.00;99.90;;;;;;5055223;28;20385;-48
2023/08/11 07:38:23;;;;;;;22.35;8.70;;;30.00;99.90;;;;;;5054016;28;20021;-49
2023/08/11 07:40:49;;;;;;;22.95;10.90;;;29.90;99.90;;;;;;5055308;28;20028;-49
2023/08/11 07:43:15;;;;;;;25.08;8.57;;;29.90;99.90;;;;;;5055258;28;20139;-49
2023/08/11 07:45:41;;;;;;;22.45;8.70;;;29.90;99.90;;;;;;5055017;28;20068;-48
2023/08/11 07:48:07;;;;;;;18.85;8.48;;;29.80;99.90;;;;;;5055196;28;20049;-49
2023/08/11 07:50:36;;;;;;;22.42;9.63;;;29.80;99.90;;;;;;5055087;28;20059;-48
2023/08/11 07:53:02;;;;;;;22.50;9.00;;;29.80;99.90;;;;;;5054950;28;20028;-49
2023/08/11 07:55:28;;;;;;;27.08;8.45;;;29.80;99.90;;;;;;5054895;28;20044;-49
2023/08/11 07:57:53;;;;;;;22.85;8.32;;;29.70;99.90;;;;;;5054718;28;20066;-49
2023/08/11 08:00:24;;;;;;;25.55;8.30;;;29.70;99.90;;;;;;5054892;28;20013;-48
2023/08/11 08:02:53;;;;;;;22.35;8.57;;;29.70;99.90;;;;;;5055116;28;20108;-48
2023/08/11 08:05:19;;;;;;;22.95;9.00;;;29.70;99.90;;;;;;5055038;28;20040;-49
2023/08/11 08:07:45;;;;;;;27.58;9.70;;;29.70;99.90;;;;;;5054959;28;20029;-48
2023/08/11 08:10:13;;;;;;;20.48;8.77;;;29.70;99.90;;;;;;5055278;28;20044;-49
2023/08/11 08:12:40;;;;;;;22.08;7.65;;;29.80;99.90;;;;;;5054836;28;20078;-48
2023/08/11 08:15:08;;;;;;;23.13;8.35;;;29.70;99.90;;;;;;5054415;28;20497;-48
2023/08/11 08:17:35;;;;;;;21.05;7.30;;;29.70;99.90;;;;;;5069892;28;20028;-48
2023/08/11 08:20:01;;;;;;;24.97;7.83;;;29.80;99.90;;;;;;5054444;28;20021;-48
2023/08/11 08:22:26;;;;;;;25.10;7.28;;;29.80;99.90;;;;;;5054527;28;20032;-48
2023/08/11 08:24:53;;;;;;;17.63;7.07;;;29.80;99.90;;;;;;5054570;28;20029;-48
2023/08/11 08:27:24;;;;;;;24.17;6.07;;;29.80;99.90;;;;;;5054452;28;20033;-48
2023/08/11 08:29:51;;;;;;;20.27;6.60;;;29.80;99.90;;;;;;5069250;28;20118;-49
2023/08/11 08:32:17;;;;;;;20.00;6.57;;;29.90;99.90;;;;;;5054164;28;20017;-48
2023/08/11 08:34:43;;;;;;;15.50;6.10;;;29.90;99.90;;;;;;5054114;28;20120;-49
2023/08/11 08:37:09;;;;;;;21.30;6.47;;;29.90;99.90;;;;;;5054014;28;20444;-49
2023/08/11 08:39:35;;;;;;;19.35;6.10;;;29.90;99.90;;;;;;5054206;28;20025;-49
2023/08/11 08:42:03;;;;;;;16.50;6.20;;;30.00;99.90;;;;;;5053263;28;20025;-48
2023/08/11 08:44:30;;;;;;;18.52;6.20;;;30.10;99.90;;;;;;5054040;28;20029;-49
2023/08/11 08:46:58;;;;;;;15.32;6.97;;;30.10;99.90;;;;;;5054186;28;20036;-49
2023/08/11 08:49:26;;;;;;;16.50;6.35;;;30.10;99.90;;;;;;5054068;28;20056;-48
2023/08/11 08:51:52;;;;;;;;;;;30.10;99.90;;;;;;5054768;28;20473;-49
2023/08/11 08:54:18;;;;;;;16.07;5.50;;;30.20;99.90;;;;;;5053843;28;20434;-50
2023/08/11 08:56:45;;;;;;;12.60;5.00;;;30.20;99.90;;;;;;5053719;28;20504;-49
2023/08/11 08:59:11;;;;;;;17.20;5.63;;;30.30;99.90;;;;;;5053786;28;20769;-50
2023/08/11 09:01:38;;;;;;;21.83;6.22;;;30.30;99.90;;;;;;5053913;28;20032;-50
2023/08/11 09:04:08;;;;;;;15.15;6.78;;;30.30;99.90;;;;;;5053739;28;20094;-51
2023/08/11 09:06:34;;;;;;;18.65;4.85;;;30.40;99.90;;;;;;5053899;28;20380;-48
2023/08/11 09:09:01;;;;;;;17.77;6.32;;;30.50;99.90;;;;;;5053546;28;20022;-49
2023/08/11 09:11:27;;;;;;;12.80;5.38;;;30.50;99.90;;;;;;5053553;28;20024;-49
2023/08/11 09:13:53;;;;;;;13.80;5.75;;;30.50;99.90;;;;;;5053143;28;20464;-49
2023/08/11 09:16:23;;;;;;;11.82;5.47;;;30.50;99.90;;;;;;5053297;28;20098;-49
2023/08/11 09:18:49;;;;;;;12.82;5.82;;;30.60;99.90;;;;;;5053436;28;20023;-48
2023/08/11 09:21:16;;;;;;;15.40;5.40;;;30.60;99.90;;;;;;5053475;28;20040;-48
2023/08/11 09:23:43;;;;;;;15.75;5.93;;;30.60;99.90;;;;;;5052118;28;20331;-48
2023/08/11 09:26:09;;;;;;;21.80;6.63;;;30.60;99.90;;;;;;5053338;28;20024;-48
2023/08/11 09:28:35;;;;;;;24.33;6.78;;;30.70;99.90;;;;;;5053291;28;20127;-50
2023/08/11 09:31:01;;;;;;;19.10;6.30;;;30.70;99.90;;;;;;5053202;28;20025;-49
2023/08/11 09:33:30;;;;;;;14.90;6.30;;;30.80;99.90;;;;;;5053426;28;20586;-50
2023/08/11 09:35:56;;;;;;;16.08;5.57;;;30.80;99.90;;;;;;5053541;28;20159;-53
2023/08/11 09:38:25;;;;;;;13.02;5.70;;;30.80;99.90;;;;;;5053090;28;20047;-50
2023/08/11 09:40:51;;;;;;;20.48;5.55;;;30.80;99.90;;;;;;5052945;28;20083;-49
2023/08/11 09:43:17;;;;;;;18.83;6.10;;;30.90;99.90;;;;;;5052911;28;20469;-50
2023/08/11 09:45:43;;;;;;;15.90;6.22;;;30.90;99.90;;;;;;5053134;28;20017;-50
2023/08/11 09:48:08;;;;;;;19.90;5.78;;;31.00;99.90;;;;;;5051450;28;20093;-50
2023/08/11 09:50:36;;;;;;;18.27;6.22;;;31.00;99.90;;;;;;5053105;28;20420;-49
2023/08/11 09:53:04;;;;;;;15.63;5.53;;;31.00;99.90;;;;;;5052815;28;20048;-49
2023/08/11 09:55:32;;;;;;;14.10;5.78;;;31.00;99.90;;;;;;5067147;28;20114;-49
2023/08/11 09:58:01;;;;;;;17.65;7.10;;;31.10;99.90;;;;;;5052835;28;20035;-49
2023/08/11 10:00:27;;;;;;;12.02;5.68;;;31.10;99.90;;;;;;5052838;28;20025;-49
2023/08/11 10:02:59;;;;;;;15.85;5.90;;;31.20;99.90;;;;;;5052682;28;20527;-49
2023/08/11 10:05:27;;;;;;;16.52;7.07;;;31.10;99.90;;;;;;5067985;28;20033;-50
2023/08/11 10:07:55;;;;;;;19.10;6.38;;;31.20;99.90;;;;;;5052491;28;20481;-49
2023/08/11 10:10:22;;;;;;;26.10;6.88;;;31.20;99.90;;;;;;5052378;28;20044;-49
2023/08/11 10:12:55;;;;;;;22.58;7.35;;;31.30;99.90;;;;;;5052295;28;20017;-49
2023/08/11 10:15:23;;;;;;;18.95;7.28;;;31.30;99.90;;;;;;5050688;28;20048;-48
2023/08/11 10:17:49;;;;;;;20.05;7.18;;;31.30;99.90;;;;;;5051229;28;20036;-49
2023/08/11 10:20:16;;;;;;;20.23;7.50;;;31.20;99.90;;;;;;5050889;28;20114;-50
2023/08/11 10:22:42;;;;;;;21.70;7.93;;;31.20;99.90;;;;;;5052249;28;20021;-49
2023/08/11 10:25:08;;;;;;;22.63;7.55;;;31.20;99.90;;;;;;5052257;28;20063;-50
2023/08/11 10:27:36;;;;;;;21.23;8.07;;;31.20;99.90;;;;;;5051969;28;20029;-49
2023/08/11 10:30:05;;;;;;;16.70;8.25;;;31.20;99.90;;;;;;5067449;28;20029;-49
2023/08/11 10:32:34;;;;;;;19.67;8.93;;;31.20;99.90;;;;;;5052087;28;20526;-49
2023/08/11 10:35:01;;;;;;;22.60;8.77;;;31.20;99.90;;;;;;5052137;28;20122;-49
2023/08/11 10:37:31;;;;;;;22.60;9.20;;;31.20;99.90;;;;;;5052163;28;20019;-50
2023/08/11 10:40:04;;;;;;;19.60;8.68;;;31.20;99.90;;;;;;5052144;28;20159;-50
2023/08/11 10:42:31;;;;;;;18.25;8.48;;;31.20;99.90;;;;;;5052482;28;20021;-50
2023/08/11 10:45:11;;;;;;;23.43;10.43;;;31.10;99.90;;;;;;5067663;28;20457;-50
2023/08/11 10:47:38;;;;;;;21.80;9.00;;;31.10;99.90;;;;;;5050774;28;20262;-50
2023/08/11 10:50:07;;;;;;;;;;;31.10;99.90;;;;;;5052527;28;20028;-50
2023/08/11 10:52:34;;;;;;;19.45;9.43;;;31.20;99.90;;;;;;5051853;28;19908;-50
2023/08/11 10:55:02;;;;;;;;;;;31.20;99.90;;;;;;5052530;28;20094;-49
2023/08/11 10:57:30;;;;;;;23.13;9.88;;;31.20;99.90;;;;;;5051995;28;19995;-50
2023/08/11 10:59:56;;;;;;;16.85;8.55;;;31.20;99.90;;;;;;5051544;28;20033;-49
2023/08/11 11:02:22;;;;;;;16.40;6.70;;;31.20;99.90;;;;;;5050278;28;20537;-49
2023/08/11 11:04:51;;;;;;;19.77;8.02;;;31.30;99.90;;;;;;5050249;28;20366;-49
2023/08/11 11:07:20;;;;;;;21.77;8.15;;;31.20;99.90;;;;;;5051598;28;20078;-49
2023/08/11 11:09:46;;;;;;;23.38;8.63;;;31.30;99.90;;;;;;5051531;28;20491;-52
2023/08/11 11:12:14;;;;;;;20.55;7.82;;;31.30;99.90;;;;;;5066401;28;20021;-50
2023/08/11 11:14:40;;;;;;;17.33;6.78;;;31.40;99.90;;;;;;5049499;28;20132;-51
2023/08/11 11:17:07;;;;;;;22.42;7.13;;;31.30;99.90;;;;;;5051016;28;20072;-50
2023/08/11 11:19:33;;;;;;;17.63;7.43;;;31.40;99.90;;;;;;5051100;28;20068;-51
2023/08/11 11:22:00;;;;;;;20.90;7.43;;;31.40;99.90;;;;;;5051283;28;20064;-50
2023/08/11 11:24:26;;;;;;;20.10;7.38;;;31.40;99.90;;;;;;5051046;28;20104;-52
2023/08/11 11:26:52;;;;;;;21.52;6.50;;;31.50;99.90;;;;;;5048273;28;20099;-51
2023/08/11 11:29:23;;;;;;;25.77;8.43;;;31.60;99.90;;;;;;5050853;28;20041;-51
2023/08/11 11:31:50;;;;;;;20.52;7.10;;;31.50;99.90;;;;;;5050969;28;20473;-49
2023/08/11 11:34:17;;;;;;;19.90;6.30;;;31.50;99.90;;;;;;5049786;28;20075;-50
2023/08/11 11:36:43;;;;;;;14.57;5.93;;;31.50;99.90;;;;;;5051003;28;20492;-51
2023/08/11 11:39:10;;;;;;;29.15;6.65;;;31.50;99.90;;;;;;5040500;28;20038;-48
2023/08/11 11:41:36;;;;;;;17.88;6.38;;;31.40;99.90;;;;;;5046105;28;20047;-48
2023/08/11 11:44:02;;;;;;;15.15;5.35;;;31.40;99.90;;;;;;5047044;28;20021;-50
2023/08/11 11:46:31;;;;;;;14.45;5.20;;;31.20;99.90;;;;;;5029583;28;20112;-50
2023/08/11 11:48:58;;;;;;;15.18;5.78;;;31.10;99.90;;;;;;5046045;28;20032;-50
2023/08/11 11:51:26;;;;;;;15.02;5.80;;;31.00;99.90;;;;;;5048061;28;20025;-50
2023/08/11 11:53:54;;;;;;;14.63;4.90;;;30.90;99.90;;;;;;5051312;28;20045;-50
2023/08/11 11:56:20;;;;;;;14.23;4.47;;;30.70;99.90;;;;;;5048907;28;20040;-50
2023/08/11 11:58:49;;;;;;;12.18;5.90;;;30.60;99.90;;;;;;5048238;28;20060;-50
2023/08/11 12:01:20;;;;;;;11.90;5.00;;;30.50;99.90;;;;;;5045153;28;20068;-50
2023/08/11 12:03:48;;;;;;;9.70;4.45;;;30.40;99.90;;;;;;5047070;28;20021;-49
2023/08/11 12:06:15;;;;;;;11.13;5.18;;;30.30;99.90;;;;;;5048664;28;20032;-50
2023/08/11 12:08:42;;;;;;;9.75;4.22;;;30.20;99.90;;;;;;5046739;28;20067;-50
2023/08/11 12:11:11;;;;;;;12.82;4.45;;;30.10;99.90;;;;;;5047812;28;20031;-51
2023/08/11 12:13:42;;;;;;;7.45;3.72;;;30.00;99.90;;;;;;5042821;28;20045;-50
2023/08/11 12:16:09;;;;;;;10.65;5.18;;;29.90;99.90;;;;;;5034289;28;20056;-50
2023/08/11 12:18:39;;;;;;;8.63;5.07;;;29.80;99.90;;;;;;5031567;28;20346;-50
2023/08/11 12:21:09;;;;;;;9.02;4.50;;;29.80;99.90;;;;;;5051780;28;20037;-50
2023/08/11 12:23:35;;;;;;;10.20;4.30;;;29.70;99.90;;;;;;5051883;28;20017;-49
2023/08/11 12:26:01;;;;;;;10.57;5.45;;;29.60;99.90;;;;;;5052228;28;20039;-50
2023/08/11 12:28:27;;;;;;;132.70;91.13;;;29.50;99.90;;;;;;5051499;28;20047;-50
2023/08/11 12:30:53;;;;;;;608.42;233.30;;;29.50;99.90;;;;;;5052121;28;20024;-50
2023/08/11 12:33:19;;;;;;;310.25;143.70;;;29.40;99.90;;;;;;5050451;28;20064;-50
2023/08/11 12:35:48;;;;;;;400.50;164.18;;;29.40;99.90;;;;;;5051139;28;20107;-50
2023/08/11 12:38:14;;;;;;;381.15;150.25;;;29.30;99.90;;;;;;5052051;28;20033;-50